createdAt,value
2023-04-18T00:00:37.717Z,30.78
2023-04-18T00:04:37.809Z,30.78
2023-04-18T00:08:37.787Z,30.82
2023-04-18T00:12:37.840Z,30.78
2023-04-18T00:16:38.007Z,30.79
2023-04-18T00:20:37.946Z,30.81
2023-04-18T00:24:37.975Z,30.82
2023-04-18T00:28:38.048Z,30.78
2023-04-18T00:32:38.196Z,30.77
2023-04-18T00:36:38.117Z,30.77
2023-04-18T00:40:38.145Z,30.75
2023-04-18T00:44:38.208Z,30.75
2023-04-18T00:48:38.270Z,30.74
2023-04-18T00:52:38.292Z,30.72
2023-04-18T00:56:38.307Z,30.75
2023-04-18T01:00:38.381Z,30.70
2023-04-18T01:04:38.586Z,30.69
2023-04-18T01:08:38.520Z,30.68
2023-04-18T01:12:38.570Z,30.65
2023-04-18T01:16:38.580Z,30.66
2023-04-18T01:20:38.663Z,30.65
2023-04-18T01:24:38.715Z,30.65
2023-04-18T01:28:38.830Z,30.66
2023-04-18T01:32:38.929Z,30.68
2023-04-18T01:36:39.404Z,30.63
2023-04-18T01:40:38.985Z,30.61
2023-04-18T01:44:39.036Z,30.59
2023-04-18T01:48:39.056Z,30.57
2023-04-18T01:52:39.185Z,30.58
2023-04-18T01:56:39.166Z,30.55
2023-04-18T02:00:39.212Z,30.53
2023-04-18T02:04:39.309Z,30.53
2023-04-18T02:08:39.400Z,30.51
2023-04-18T02:12:39.429Z,30.52
2023-04-18T02:16:39.517Z,30.55
2023-04-18T02:20:39.530Z,30.54
2023-04-18T02:24:39.616Z,30.49
2023-04-18T02:28:39.761Z,30.50
2023-04-18T02:32:39.870Z,30.49
2023-04-18T02:36:39.877Z,30.41
2023-04-18T02:40:39.994Z,30.44
2023-04-18T02:44:40.086Z,30.43
2023-04-18T02:48:40.163Z,30.42
2023-04-18T02:52:40.228Z,30.40
2023-04-18T02:56:40.302Z,30.41
2023-04-18T03:00:40.311Z,30.40
2023-04-18T03:04:40.412Z,30.36
2023-04-18T03:08:40.397Z,30.34
2023-04-18T03:12:40.494Z,30.38
2023-04-18T03:16:40.583Z,30.34
2023-04-18T03:20:40.664Z,30.33
2023-04-18T03:24:40.717Z,30.31
2023-04-18T03:28:40.763Z,30.27
2023-04-18T03:32:40.857Z,30.22
2023-04-18T03:36:40.869Z,30.26
2023-04-18T03:40:40.920Z,30.22
2023-04-18T03:44:40.989Z,30.19
2023-04-18T03:48:41.078Z,30.19
2023-04-18T03:52:41.199Z,30.18
2023-04-18T03:56:41.290Z,30.18
2023-04-18T04:00:41.336Z,30.17
2023-04-18T04:04:41.483Z,30.13
2023-04-18T04:08:41.430Z,30.13
2023-04-18T04:12:41.499Z,30.13
2023-04-18T04:16:41.720Z,30.14
2023-04-18T04:20:41.610Z,30.13
2023-04-18T04:24:41.659Z,30.14
2023-04-18T04:28:41.745Z,30.11
2023-04-18T04:32:42.013Z,30.08
2023-04-18T04:36:41.910Z,30.08
2023-04-18T04:40:41.996Z,30.05
2023-04-18T04:44:42.225Z,30.00
2023-04-18T04:48:42.164Z,30.03
2023-04-18T04:52:42.233Z,30.03
2023-04-18T04:56:42.368Z,30.03
2023-04-18T05:00:42.473Z,30.02
2023-04-18T05:04:42.748Z,30.03
2023-04-18T05:08:42.718Z,29.98
2023-04-18T05:12:42.817Z,30.73
2023-04-18T05:16:43.019Z,32.53
2023-04-18T05:20:43.002Z,31.58
2023-04-18T05:24:43.120Z,31.21
2023-04-18T05:28:43.260Z,30.90
2023-04-18T05:32:43.449Z,30.71
2023-04-18T05:36:43.606Z,31.14
2023-04-18T05:40:43.756Z,31.07
2023-04-18T05:44:43.768Z,30.92
2023-04-18T05:48:43.854Z,30.47
2023-04-18T05:52:44.033Z,30.77
2023-04-18T05:56:44.189Z,30.18
2023-04-18T06:00:44.549Z,29.36
2023-04-18T06:04:44.593Z,29.85
2023-04-18T06:08:44.699Z,31.53
2023-04-18T06:12:44.813Z,31.91
2023-04-18T06:16:44.946Z,32.38
2023-04-18T06:20:45.050Z,33.07
2023-04-18T06:24:45.115Z,33.53
2023-04-18T06:28:45.299Z,34.05
2023-04-18T06:32:45.479Z,34.54
2023-04-18T06:36:45.605Z,35.14
2023-04-18T06:40:45.688Z,35.41
2023-04-18T06:44:45.721Z,35.72
2023-04-18T06:48:45.824Z,36.40
2023-04-18T06:52:45.896Z,36.62
2023-04-18T06:56:45.964Z,36.97
2023-04-18T07:00:46.066Z,36.76
2023-04-18T07:04:46.148Z,36.49
2023-04-18T07:08:46.236Z,36.59
2023-04-18T07:12:46.375Z,36.58
2023-04-18T07:16:46.419Z,36.50
2023-04-18T07:20:46.488Z,36.46
2023-04-18T07:24:46.566Z,36.31
2023-04-18T07:28:46.694Z,36.24
2023-04-18T07:32:46.731Z,36.17
2023-04-18T07:36:46.857Z,36.20
2023-04-18T07:40:46.890Z,36.15
2023-04-18T07:44:46.945Z,36.17
2023-04-18T07:48:47.079Z,34.33
2023-04-18T07:52:47.263Z,34.42
2023-04-18T07:56:47.456Z,35.09
2023-04-18T08:00:47.875Z,35.37
2023-04-18T08:04:47.901Z,35.99
2023-04-18T08:08:47.841Z,36.36
2023-04-18T08:12:55.067Z,36.64
2023-04-18T08:16:47.907Z,37.05
2023-04-18T08:20:47.821Z,37.42
2023-04-18T08:25:03.363Z,37.55
2023-04-18T08:28:48.720Z,37.89
2023-04-18T08:32:47.831Z,38.04
2023-04-18T08:36:47.867Z,38.29
2023-04-18T08:40:48.056Z,38.76
2023-04-18T08:44:48.184Z,34.51
2023-04-18T08:48:48.403Z,35.76
2023-04-18T08:52:48.460Z,37.02
2023-04-18T08:56:48.553Z,37.30
2023-04-18T09:00:48.756Z,33.02
2023-04-18T09:04:48.769Z,33.43
2023-04-18T09:08:48.832Z,35.11
2023-04-18T09:12:49.040Z,35.52
2023-04-18T09:16:49.201Z,36.25
2023-04-18T09:20:49.261Z,36.87
2023-04-18T09:24:49.325Z,37.29
2023-04-18T09:28:49.836Z,37.96
2023-04-18T09:32:49.693Z,39.54
2023-04-18T09:36:49.863Z,39.70
2023-04-18T09:40:50.014Z,39.85
2023-04-18T09:44:50.114Z,40.65
2023-04-18T09:48:50.249Z,41.85
2023-04-18T09:52:50.595Z,39.39
2023-04-18T09:56:50.580Z,39.37
2023-04-18T10:00:50.805Z,39.35
2023-04-18T10:04:51.103Z,38.90
2023-04-18T10:08:51.098Z,38.47
2023-04-18T10:12:51.195Z,38.24
2023-04-18T10:16:51.219Z,38.11
2023-04-18T10:20:51.305Z,37.90
2023-04-18T10:24:51.406Z,37.83
2023-04-18T10:28:51.443Z,37.65
2023-04-18T10:32:51.553Z,37.49
2023-04-18T10:36:51.569Z,37.32
2023-04-18T10:40:51.713Z,37.23
2023-04-18T10:44:51.836Z,34.26
2023-04-18T10:48:51.996Z,34.93
2023-04-18T10:52:52.206Z,34.83
2023-04-18T10:56:52.433Z,34.16
2023-04-18T11:00:52.691Z,33.69
2023-04-18T11:04:52.790Z,33.41
2023-04-18T11:08:53.009Z,33.09
2023-04-18T11:12:53.167Z,32.66
2023-04-18T11:16:53.409Z,32.29
2023-04-18T11:20:53.473Z,31.90
2023-04-18T11:24:53.612Z,31.55
2023-04-18T11:28:53.685Z,31.26
2023-04-18T11:32:53.863Z,31.33
2023-04-18T11:36:53.841Z,31.03
2023-04-18T11:40:53.868Z,31.14
2023-04-18T11:44:53.914Z,30.91
2023-04-18T11:48:53.985Z,30.69
2023-04-18T11:52:54.018Z,30.53
2023-04-18T11:56:54.060Z,30.25
2023-04-18T12:00:54.126Z,30.06
2023-04-18T12:04:54.513Z,29.91
2023-04-18T12:08:54.285Z,29.14
2023-04-18T12:12:54.363Z,28.98
2023-04-18T12:16:54.447Z,29.07
2023-04-18T12:20:54.608Z,29.07
2023-04-18T12:24:54.700Z,28.95
2023-04-18T12:28:54.873Z,28.87
2023-04-18T12:32:55.163Z,28.68
2023-04-18T12:36:55.238Z,28.83
2023-04-18T12:40:55.441Z,28.57
2023-04-18T12:44:55.630Z,28.68
2023-04-18T12:48:55.848Z,28.74
2023-04-18T12:52:56.064Z,28.74
2023-04-18T12:56:56.245Z,28.75
2023-04-18T13:01:03.527Z,28.58
2023-04-18T13:04:56.545Z,28.55
2023-04-18T13:08:56.425Z,28.77
2023-04-18T13:12:56.475Z,29.08
2023-04-18T13:16:56.377Z,29.22
2023-04-18T13:20:56.320Z,29.19
2023-04-18T13:24:56.307Z,29.27
2023-04-18T13:28:56.379Z,29.25
2023-04-18T13:32:56.307Z,29.31
2023-04-18T13:36:58.481Z,29.31
2023-04-18T13:41:08.484Z,29.43
2023-04-18T13:44:57.083Z,29.48
2023-04-18T13:48:56.126Z,29.54
2023-04-18T13:52:56.041Z,29.56
2023-04-18T13:56:56.115Z,29.80
2023-04-18T14:00:40.547Z,31.73
2023-04-18T14:01:40.611Z,30.74
2023-04-18T14:02:40.664Z,30.71
2023-04-18T14:03:42.985Z,30.53
2023-04-18T14:04:40.555Z,30.45
2023-04-18T14:05:40.525Z,30.54
2023-04-18T14:06:40.484Z,30.51
2023-04-18T14:07:40.501Z,30.60
2023-04-18T14:08:40.527Z,30.59
2023-04-18T14:09:40.462Z,30.63
2023-04-18T14:10:40.465Z,30.67
2023-04-18T14:11:40.471Z,30.68
2023-04-18T14:12:40.494Z,30.73
2023-04-18T14:13:40.432Z,30.72
2023-04-18T14:14:40.439Z,30.73
2023-04-18T14:15:40.453Z,30.73
2023-04-18T14:16:40.416Z,30.74
2023-04-18T14:17:40.681Z,30.77
2023-04-18T14:18:40.384Z,30.78
2023-04-18T14:19:40.420Z,30.78
2023-04-18T14:20:40.399Z,30.81
2023-04-18T14:21:40.445Z,30.81
2023-04-18T14:22:40.426Z,30.82
2023-04-18T14:23:40.355Z,30.83
2023-04-18T14:24:40.403Z,30.84
2023-04-18T14:25:40.375Z,30.86
2023-04-18T14:26:40.329Z,30.85
2023-04-18T14:27:40.365Z,30.85
2023-04-18T14:28:40.358Z,30.89
2023-04-18T14:29:40.339Z,30.90
2023-04-18T14:30:40.328Z,30.93
2023-04-18T14:31:40.355Z,30.89
2023-04-18T14:32:40.367Z,30.90
2023-04-18T14:33:40.325Z,30.92
2023-04-18T14:34:40.350Z,30.96
2023-04-18T14:35:40.310Z,30.94
2023-04-18T14:36:40.281Z,30.91
2023-04-18T14:37:40.297Z,30.92
2023-04-18T14:38:40.264Z,30.93
2023-04-18T14:39:40.294Z,30.93
2023-04-18T14:40:40.256Z,30.95
2023-04-18T14:41:40.243Z,30.95
2023-04-18T14:42:40.265Z,30.97
2023-04-18T14:43:40.265Z,30.95
2023-04-18T14:44:40.237Z,30.97
2023-04-18T14:45:40.241Z,31.00
2023-04-18T14:46:40.269Z,30.98
2023-04-18T14:47:40.302Z,31.03
2023-04-18T14:48:40.226Z,31.00
2023-04-18T14:49:40.203Z,30.97
2023-04-18T14:50:40.215Z,31.02
2023-04-18T14:51:40.179Z,31.01
2023-04-18T14:52:40.145Z,30.99
2023-04-18T14:53:40.157Z,31.02
2023-04-18T14:54:40.168Z,31.00
2023-04-18T14:55:40.174Z,31.00
2023-04-18T14:56:40.208Z,31.02
2023-04-18T14:57:40.145Z,31.03
2023-04-18T14:58:40.148Z,30.98
2023-04-18T14:59:40.126Z,30.97
2023-04-18T15:00:40.121Z,31.01
2023-04-18T15:01:40.187Z,31.06
2023-04-18T15:02:40.408Z,31.03
2023-04-18T15:03:40.192Z,31.06
2023-04-18T15:04:40.150Z,31.05
2023-04-18T15:05:40.089Z,31.02
2023-04-18T15:06:40.077Z,31.05
2023-04-18T15:07:40.099Z,31.01
2023-04-18T15:08:40.061Z,31.08
2023-04-18T15:09:40.065Z,31.05
2023-04-18T15:10:40.038Z,31.07
2023-04-18T15:11:40.073Z,31.07
2023-04-18T15:12:40.046Z,31.07
2023-04-18T15:13:40.066Z,31.03
2023-04-18T15:14:40.038Z,31.06
2023-04-18T15:15:40.043Z,31.08
2023-04-18T15:16:40.049Z,31.08
2023-04-18T15:17:40.055Z,31.08
2023-04-18T15:18:40.063Z,31.07
2023-04-18T15:19:40.072Z,31.05
2023-04-18T15:20:40.087Z,31.08
2023-04-18T15:21:40.095Z,31.06
2023-04-18T15:22:40.077Z,31.12
2023-04-18T15:23:40.133Z,31.10
2023-04-18T15:24:40.171Z,31.06
2023-04-18T15:25:40.162Z,31.08
2023-04-18T15:26:40.186Z,31.07
2023-04-18T15:27:40.190Z,31.08
2023-04-18T15:28:40.263Z,31.09
2023-04-18T15:29:40.207Z,31.11
2023-04-18T15:30:40.283Z,31.11
2023-04-18T15:31:40.339Z,31.12
2023-04-18T15:32:40.336Z,31.12
2023-04-18T15:33:40.317Z,31.11
2023-04-18T15:34:40.313Z,31.08
2023-04-18T15:35:40.358Z,31.12
2023-04-18T15:36:40.361Z,31.12
2023-04-18T15:37:40.327Z,31.10
2023-04-18T15:38:40.381Z,31.10
2023-04-18T15:39:40.375Z,31.09
2023-04-18T15:40:40.380Z,31.12
2023-04-18T15:41:40.393Z,31.11
2023-04-18T15:42:40.403Z,31.15
2023-04-18T15:43:40.380Z,31.14
2023-04-18T15:44:40.487Z,31.13
2023-04-18T15:45:40.396Z,31.13
2023-04-18T15:46:40.467Z,31.13
2023-04-18T15:47:40.576Z,31.15
2023-04-18T15:48:40.454Z,31.15
2023-04-18T15:49:40.472Z,31.15
2023-04-18T15:50:40.488Z,31.13
2023-04-18T15:51:40.490Z,31.13
2023-04-18T15:52:40.520Z,31.15
2023-04-18T15:53:40.583Z,31.15
2023-04-18T15:54:40.561Z,31.14
2023-04-18T15:55:40.542Z,31.16
2023-04-18T15:56:40.592Z,31.20
2023-04-18T15:57:40.700Z,31.16
2023-04-18T15:58:40.620Z,31.15
2023-04-18T15:59:40.654Z,31.18
2023-04-18T16:00:40.651Z,31.17
2023-04-18T16:01:40.716Z,31.15
2023-04-18T16:02:40.752Z,31.16
2023-04-18T16:03:40.837Z,31.19
2023-04-18T16:04:40.753Z,31.16
2023-04-18T16:05:40.735Z,31.18
2023-04-18T16:06:40.733Z,31.19
2023-04-18T16:07:40.767Z,31.20
2023-04-18T16:08:40.775Z,31.18
2023-04-18T16:09:40.782Z,31.19
2023-04-18T16:10:40.825Z,31.21
2023-04-18T16:11:40.842Z,31.24
2023-04-18T16:12:40.826Z,31.17
2023-04-18T16:13:40.860Z,31.23
2023-04-18T16:14:40.849Z,31.21
2023-04-18T16:15:40.874Z,31.23
2023-04-18T16:16:40.944Z,31.24
2023-04-18T16:17:40.935Z,31.23
2023-04-18T16:18:40.948Z,31.23
2023-04-18T16:19:40.966Z,31.25
2023-04-18T16:20:40.997Z,31.24
2023-04-18T16:21:40.994Z,31.24
2023-04-18T16:22:41.027Z,31.23
2023-04-18T16:23:41.095Z,31.23
2023-04-18T16:24:42.182Z,31.24
2023-04-18T16:25:41.102Z,31.26
2023-04-18T16:26:41.111Z,31.26
2023-04-18T16:27:41.112Z,31.27
2023-04-18T16:28:41.156Z,31.27
2023-04-18T16:29:41.134Z,31.26
2023-04-18T16:30:41.157Z,31.27
2023-04-18T16:31:41.321Z,31.28
2023-04-18T16:32:41.272Z,31.29
2023-04-18T16:33:41.246Z,31.29
2023-04-18T16:34:41.269Z,31.31
2023-04-18T16:35:41.289Z,31.30
2023-04-18T16:36:41.273Z,31.30
2023-04-18T16:37:41.324Z,31.33
2023-04-18T16:38:41.356Z,31.30
2023-04-18T16:39:41.367Z,31.33
2023-04-18T16:40:41.350Z,31.30
2023-04-18T16:41:41.361Z,31.32
2023-04-18T16:42:41.394Z,31.31
2023-04-18T16:43:41.433Z,31.30
2023-04-18T16:44:41.450Z,31.33
2023-04-18T16:45:41.449Z,31.34
2023-04-18T16:46:42.359Z,31.32
2023-04-18T16:47:41.487Z,31.31
2023-04-18T16:48:41.509Z,31.35
2023-04-18T16:49:41.525Z,31.34
2023-04-18T16:50:41.507Z,31.35
2023-04-18T16:51:41.523Z,31.35
2023-04-18T16:52:41.530Z,31.34
2023-04-18T16:53:41.581Z,31.36
2023-04-18T16:54:41.594Z,31.36
2023-04-18T16:55:41.598Z,31.36
2023-04-18T16:56:41.596Z,31.36
2023-04-18T16:57:41.646Z,31.36
2023-04-18T16:58:41.666Z,31.38
2023-04-18T16:59:41.661Z,31.39
2023-04-18T17:00:41.659Z,31.38
2023-04-18T17:01:41.709Z,31.38
2023-04-18T17:02:41.773Z,31.40
2023-04-18T17:03:41.757Z,31.39
2023-04-18T17:04:41.794Z,31.38
2023-04-18T17:05:41.758Z,31.39
2023-04-18T17:06:41.765Z,31.42
2023-04-18T17:07:41.805Z,31.43
2023-04-18T17:08:41.805Z,31.41
2023-04-18T17:09:41.818Z,31.42
2023-04-18T17:10:41.830Z,31.40
2023-04-18T17:11:41.879Z,31.41
2023-04-18T17:12:41.862Z,31.42
2023-04-18T17:13:41.842Z,31.44
2023-04-18T17:14:41.903Z,31.42
2023-04-18T17:15:41.897Z,31.44
2023-04-18T17:16:41.952Z,31.47
2023-04-18T17:17:41.982Z,31.44
2023-04-18T17:18:41.945Z,31.44
2023-04-18T17:19:41.965Z,31.46
2023-04-18T17:20:41.951Z,31.45
2023-04-18T17:21:41.997Z,31.44
2023-04-18T17:22:42.003Z,31.46
2023-04-18T17:23:42.075Z,31.46
2023-04-18T17:24:42.031Z,31.47
2023-04-18T17:25:42.070Z,31.48
2023-04-18T17:26:42.095Z,31.48
2023-04-18T17:27:42.103Z,31.47
2023-04-18T17:29:45.925Z,31.57
2023-04-18T17:30:45.936Z,31.53
2023-04-18T17:31:45.936Z,31.54
2023-04-18T17:32:46.144Z,31.56
2023-04-18T17:33:45.882Z,31.55
2023-04-18T17:34:45.922Z,31.54
2023-04-18T17:35:45.879Z,31.56
2023-04-18T17:36:45.880Z,31.56
2023-04-18T17:37:45.905Z,31.56
2023-04-18T17:38:45.898Z,31.54
2023-04-18T17:39:45.899Z,31.56
2023-04-18T17:40:45.861Z,31.55
2023-04-18T17:41:45.872Z,31.56
2023-04-18T17:42:45.877Z,31.57
2023-04-18T17:43:45.819Z,31.56
2023-04-18T17:44:45.840Z,31.56
2023-04-18T17:45:45.864Z,31.57
2023-04-18T17:46:45.803Z,31.56
2023-04-18T17:47:45.846Z,31.58
2023-04-18T17:48:45.807Z,31.56
2023-04-18T17:49:45.801Z,31.60
2023-04-18T17:50:45.772Z,31.59
2023-04-18T17:51:45.781Z,31.57
2023-04-18T17:52:45.743Z,31.59
2023-04-18T17:53:45.787Z,31.56
2023-04-18T17:54:45.759Z,31.59
2023-04-18T17:55:45.744Z,31.57
2023-04-18T17:56:45.742Z,31.60
2023-04-18T17:57:45.711Z,31.59
2023-04-18T17:58:45.721Z,31.58
2023-04-18T17:59:45.738Z,31.59
2023-04-18T18:00:45.696Z,31.60
2023-04-18T18:01:45.789Z,31.60
2023-04-18T18:02:45.867Z,31.61
2023-04-18T18:03:45.895Z,31.61
2023-04-18T18:04:45.664Z,31.63
2023-04-18T18:05:45.680Z,31.62
2023-04-18T18:06:45.653Z,31.62
2023-04-18T18:07:45.779Z,31.60
2023-04-18T18:08:45.685Z,31.63
2023-04-18T18:09:45.622Z,31.60
2023-04-18T18:10:46.692Z,31.62
2023-04-18T18:11:45.628Z,31.62
2023-04-18T18:12:45.679Z,31.63
2023-04-18T18:13:45.629Z,31.63
2023-04-18T18:14:45.609Z,31.62
2023-04-18T18:15:45.626Z,31.64
2023-04-18T18:16:45.669Z,31.65
2023-04-18T18:17:45.616Z,31.62
2023-04-18T18:18:45.573Z,31.64
2023-04-18T18:19:45.628Z,31.62
2023-04-18T18:20:45.575Z,31.65
2023-04-18T18:21:45.595Z,31.66
2023-04-18T18:22:45.579Z,31.65
2023-04-18T18:23:45.549Z,31.67
2023-04-18T18:24:45.578Z,31.65
2023-04-18T18:25:45.578Z,31.64
2023-04-18T18:26:45.512Z,31.68
2023-04-18T18:27:45.553Z,31.65
2023-04-18T18:28:45.481Z,31.69
2023-04-18T18:29:45.498Z,31.65
2023-04-18T18:30:45.507Z,31.67
2023-04-18T18:31:45.562Z,31.69
2023-04-18T18:32:45.517Z,31.67
2023-04-18T18:33:45.488Z,31.70
2023-04-18T18:34:45.471Z,31.66
2023-04-18T18:35:45.486Z,31.69
2023-04-18T18:36:45.470Z,31.71
2023-04-18T18:37:45.449Z,31.68
2023-04-18T18:38:45.479Z,31.70
2023-04-18T18:39:45.418Z,31.67
2023-04-18T18:40:45.434Z,31.67
2023-04-18T18:41:45.445Z,31.68
2023-04-18T18:42:45.430Z,31.68
2023-04-18T18:43:45.434Z,31.69
2023-04-18T18:44:45.401Z,31.71
2023-04-18T18:45:45.379Z,31.71
2023-04-18T18:46:45.513Z,31.70
2023-04-18T18:47:45.404Z,31.69
2023-04-18T18:48:45.398Z,31.69
2023-04-18T18:49:45.404Z,31.71
2023-04-18T18:50:45.334Z,31.69
2023-04-18T18:51:45.375Z,31.70
2023-04-18T18:52:45.317Z,31.71
2023-04-18T18:53:45.330Z,31.72
2023-04-18T18:54:45.330Z,31.73
2023-04-18T18:55:45.430Z,31.72
2023-04-18T18:56:45.303Z,31.72
2023-04-18T18:57:45.344Z,31.70
2023-04-18T18:58:45.282Z,31.74
2023-04-18T18:59:45.323Z,31.71
2023-04-18T19:00:45.282Z,31.73
2023-04-18T19:01:45.306Z,31.73
2023-04-18T19:02:45.410Z,31.75
2023-04-18T19:03:45.424Z,31.73
2023-04-18T19:04:45.413Z,31.73
2023-04-18T19:05:45.271Z,31.75
2023-04-18T19:06:45.274Z,31.73
2023-04-18T19:07:45.213Z,31.74
2023-04-18T19:08:45.242Z,31.76
2023-04-18T19:09:45.214Z,31.74
2023-04-18T19:10:45.256Z,31.75
2023-04-18T19:11:45.277Z,31.74
2023-04-18T19:12:45.257Z,31.75
2023-04-18T19:13:45.337Z,31.76
2023-04-18T19:14:45.305Z,31.75
2023-04-18T19:15:45.360Z,31.75
2023-04-18T19:16:45.398Z,31.74
2023-04-18T19:17:45.356Z,31.74
2023-04-18T19:18:45.383Z,31.78
2023-04-18T19:19:45.401Z,31.75
2023-04-18T19:20:45.421Z,31.75
2023-04-18T19:21:45.426Z,31.74
2023-04-18T19:22:45.488Z,31.77
2023-04-18T19:23:45.431Z,31.77
2023-04-18T19:24:45.436Z,31.77
2023-04-18T19:25:45.453Z,31.78
2023-04-18T19:26:45.510Z,31.75
2023-04-18T19:27:45.539Z,31.76
2023-04-18T19:28:46.034Z,31.75
2023-04-18T19:29:45.530Z,31.78
2023-04-18T19:30:45.512Z,31.76
2023-04-18T19:31:45.698Z,31.78
2023-04-18T19:32:45.665Z,31.77
2023-04-18T19:33:45.682Z,31.76
2023-04-18T19:34:45.608Z,31.76
2023-04-18T19:35:45.648Z,31.77
2023-04-18T19:36:45.649Z,31.76
2023-04-18T19:37:45.677Z,31.77
2023-04-18T19:38:45.734Z,31.78
2023-04-18T19:39:45.733Z,31.80
2023-04-18T19:40:45.720Z,31.78
2023-04-18T19:41:45.786Z,31.80
2023-04-18T19:42:45.762Z,31.76
2023-04-18T19:43:45.892Z,31.77
2023-04-18T19:44:45.812Z,31.77
2023-04-18T19:45:45.877Z,31.78
2023-04-18T19:46:45.820Z,31.77
2023-04-18T19:47:45.891Z,31.77
2023-04-18T19:48:45.887Z,31.78
2023-04-18T19:49:45.881Z,31.81
2023-04-18T19:50:45.911Z,31.80
2023-04-18T19:51:45.924Z,31.81
2023-04-18T19:52:45.957Z,31.77
2023-04-18T19:53:46.068Z,31.77
2023-04-18T19:54:45.969Z,31.80
2023-04-18T19:55:45.991Z,31.81
2023-04-18T19:56:45.997Z,31.81
2023-04-18T19:57:46.026Z,31.81
2023-04-18T19:58:46.070Z,31.80
2023-04-18T19:59:46.078Z,31.79
2023-04-18T20:00:46.128Z,31.79
2023-04-18T20:01:46.178Z,31.81
2023-04-18T20:02:46.202Z,31.79
2023-04-18T20:03:46.391Z,31.79
2023-04-18T20:04:46.312Z,31.80
2023-04-18T20:05:46.164Z,31.81
2023-04-18T20:06:46.196Z,31.80
2023-04-18T20:07:46.210Z,31.79
2023-04-18T20:08:46.293Z,31.82
2023-04-18T20:09:46.284Z,31.83
2023-04-18T20:10:46.276Z,31.81
2023-04-18T20:11:46.266Z,31.82
2023-04-18T20:12:48.212Z,31.81
2023-04-18T20:13:46.310Z,31.83
2023-04-18T20:14:46.263Z,31.83
2023-04-18T20:15:46.289Z,31.85
2023-04-18T20:16:46.338Z,31.83
2023-04-18T20:17:46.331Z,31.84
2023-04-18T20:18:46.288Z,31.81
2023-04-18T20:19:46.255Z,31.85
2023-04-18T20:20:46.254Z,31.82
2023-04-18T20:21:46.218Z,31.83
2023-04-18T20:22:46.201Z,31.83
2023-04-18T20:23:46.203Z,31.82
2023-04-18T20:24:46.177Z,31.82
2023-04-18T20:25:46.177Z,31.84
2023-04-18T20:26:46.185Z,31.86
2023-04-18T20:27:46.195Z,31.83
2023-04-18T20:28:46.188Z,31.86
2023-04-18T20:29:46.143Z,31.84
2023-04-18T20:30:46.189Z,31.86
2023-04-18T20:31:46.169Z,31.84
2023-04-18T20:32:46.203Z,31.86
2023-04-18T20:33:46.189Z,31.85
2023-04-18T20:34:46.105Z,31.87
2023-04-18T20:35:46.163Z,31.85
2023-04-18T20:36:46.102Z,31.88
2023-04-18T20:37:46.109Z,31.87
2023-04-18T20:38:46.117Z,31.88
2023-04-18T20:39:46.129Z,31.88
2023-04-18T20:40:46.084Z,31.87
2023-04-18T20:41:46.093Z,31.89
2023-04-18T20:42:46.096Z,31.89
2023-04-18T20:43:46.095Z,31.90
2023-04-18T20:44:46.064Z,31.88
2023-04-18T20:45:46.124Z,31.89
2023-04-18T20:46:46.033Z,31.87
2023-04-18T20:47:46.068Z,31.90
2023-04-18T20:48:46.080Z,31.88
2023-04-18T20:49:46.028Z,31.87
2023-04-18T20:50:46.045Z,31.88
2023-04-18T20:51:46.017Z,31.90
2023-04-18T20:52:45.993Z,31.90
2023-04-18T20:53:46.017Z,31.89
2023-04-18T20:54:45.977Z,31.89
2023-04-18T20:55:46.030Z,31.91
2023-04-18T20:56:45.977Z,31.91
2023-04-18T20:57:45.993Z,31.90
2023-04-18T20:58:45.997Z,31.92
2023-04-18T20:59:45.962Z,31.93
2023-04-18T21:00:45.953Z,31.91
2023-04-18T21:01:46.005Z,31.94
2023-04-18T21:02:46.094Z,31.95
2023-04-18T21:03:46.304Z,31.95
2023-04-18T21:04:45.985Z,31.95
2023-04-18T21:05:45.948Z,31.93
2023-04-18T21:06:45.957Z,31.93
2023-04-18T21:07:45.981Z,31.93
2023-04-18T21:08:45.897Z,31.94
2023-04-18T21:09:45.924Z,31.97
2023-04-18T21:10:45.895Z,31.96
2023-04-18T21:11:45.871Z,31.98
2023-04-18T21:12:45.900Z,31.95
2023-04-18T21:13:45.898Z,31.95
2023-04-18T21:14:45.924Z,31.97
2023-04-18T21:15:45.894Z,31.95
2023-04-18T21:16:45.857Z,31.95
2023-04-18T21:17:45.901Z,31.98
2023-04-18T21:18:45.835Z,31.96
2023-04-18T21:19:45.839Z,31.99
2023-04-18T21:20:45.827Z,31.97
2023-04-18T21:21:45.856Z,31.98
2023-04-18T21:22:45.803Z,31.98
2023-04-18T21:23:45.811Z,31.98
2023-04-18T21:24:45.840Z,31.95
2023-04-18T21:25:45.761Z,31.96
2023-04-18T21:26:45.786Z,31.96
2023-04-18T21:27:45.785Z,31.93
2023-04-18T21:28:45.811Z,31.95
2023-04-18T21:29:45.865Z,31.97
2023-04-18T21:30:45.799Z,31.98
2023-04-18T21:31:45.811Z,31.98
2023-04-18T21:32:45.840Z,31.97
2023-04-18T21:33:45.732Z,32.00
2023-04-18T21:34:45.733Z,31.96
2023-04-18T21:35:45.744Z,31.98
2023-04-18T21:36:45.697Z,32.00
2023-04-18T21:37:45.721Z,31.97
2023-04-18T21:38:45.749Z,32.00
2023-04-18T21:39:45.692Z,32.00
2023-04-18T21:40:45.684Z,31.97
2023-04-18T21:41:45.693Z,32.00
2023-04-18T21:42:46.482Z,31.95
2023-04-18T21:43:45.645Z,31.98
2023-04-18T21:44:46.521Z,32.01
2023-04-18T21:45:45.647Z,31.98
2023-04-18T21:46:45.612Z,32.00
2023-04-18T21:47:45.692Z,32.02
2023-04-18T21:48:45.622Z,32.01
2023-04-18T21:49:45.629Z,32.00
2023-04-18T21:50:45.614Z,31.99
2023-04-18T21:51:45.624Z,31.99
2023-04-18T21:52:45.649Z,31.99
2023-04-18T21:53:45.670Z,32.00
2023-04-18T21:54:45.737Z,32.01
2023-04-18T21:55:45.683Z,32.00
2023-04-18T21:56:45.698Z,31.99
2023-04-18T21:57:45.733Z,32.02
2023-04-18T21:58:45.746Z,32.01
2023-04-18T21:59:45.788Z,32.00
2023-04-18T22:00:45.788Z,32.02
2023-04-18T22:01:45.795Z,31.99
2023-04-18T22:02:45.921Z,32.01
2023-04-18T22:03:45.979Z,32.02
2023-04-18T22:04:45.926Z,32.03
2023-04-18T22:05:45.895Z,32.00
2023-04-18T22:06:45.888Z,32.01
2023-04-18T22:07:56.898Z,32.01
2023-04-18T22:08:46.907Z,32.02
2023-04-18T22:09:45.900Z,32.00
2023-04-18T22:10:45.905Z,32.01
2023-04-18T22:11:45.886Z,32.02
2023-04-18T22:12:45.967Z,32.03
2023-04-18T22:13:45.903Z,32.01
2023-04-18T22:14:45.861Z,32.00
2023-04-18T22:15:45.868Z,32.03
2023-04-18T22:16:45.902Z,32.02
2023-04-18T22:17:45.848Z,32.05
2023-04-18T22:18:45.885Z,32.03
2023-04-18T22:19:45.819Z,32.01
2023-04-18T22:20:45.833Z,32.03
2023-04-18T22:21:45.844Z,32.03
2023-04-18T22:22:45.824Z,32.01
2023-04-18T22:23:45.811Z,32.03
2023-04-18T22:24:47.682Z,32.06
2023-04-18T22:25:45.770Z,32.03
2023-04-18T22:26:45.761Z,32.06
2023-04-18T22:27:45.777Z,32.04
2023-04-18T22:28:45.782Z,32.02
2023-04-18T22:29:45.803Z,32.04
2023-04-18T22:30:45.843Z,32.02
2023-04-18T22:31:45.854Z,32.03
2023-04-18T22:32:45.853Z,32.04
2023-04-18T22:33:45.869Z,32.04
2023-04-18T22:34:45.893Z,32.03
2023-04-18T22:35:46.889Z,32.06
2023-04-18T22:36:45.889Z,32.03
2023-04-18T22:37:45.872Z,32.06
2023-04-18T22:38:45.854Z,32.04
2023-04-18T22:39:45.859Z,32.03
2023-04-18T22:40:45.839Z,32.02
2023-04-18T22:41:45.869Z,32.05
2023-04-18T22:42:45.852Z,32.04
2023-04-18T22:43:45.800Z,32.03
2023-04-18T22:44:45.852Z,32.07
2023-04-18T22:45:45.898Z,32.04
2023-04-18T22:46:45.856Z,32.04
2023-04-18T22:47:45.825Z,32.05
2023-04-18T22:48:45.794Z,32.03
2023-04-18T22:49:45.788Z,32.05
2023-04-18T22:50:45.765Z,32.03
2023-04-18T22:51:45.782Z,32.04
2023-04-18T22:52:45.768Z,32.06
2023-04-18T22:53:45.748Z,32.06
2023-04-18T22:54:45.766Z,32.05
2023-04-18T22:55:45.725Z,32.04
2023-04-18T22:56:45.745Z,32.07
2023-04-18T22:57:45.757Z,32.03
2023-04-18T22:58:45.788Z,32.04
2023-04-18T22:59:45.784Z,32.06
2023-04-18T23:00:45.878Z,32.05
2023-04-18T23:01:45.889Z,32.03
2023-04-18T23:02:46.049Z,32.04
2023-04-18T23:03:46.017Z,32.07
2023-04-18T23:04:46.128Z,32.05
2023-04-18T23:05:45.899Z,32.07
2023-04-18T23:06:45.932Z,32.06
2023-04-18T23:07:46.004Z,32.08
2023-04-18T23:08:45.937Z,32.07
2023-04-18T23:09:45.982Z,32.05
2023-04-18T23:10:45.993Z,32.06
2023-04-18T23:11:46.083Z,32.08
2023-04-18T23:12:46.065Z,32.06
2023-04-18T23:13:46.082Z,32.06
2023-04-18T23:14:46.081Z,32.03
2023-04-18T23:15:46.132Z,32.07
2023-04-18T23:16:46.125Z,32.03
2023-04-18T23:17:46.154Z,32.04
2023-04-18T23:18:46.128Z,32.06
2023-04-18T23:19:46.163Z,32.05
2023-04-18T23:20:46.180Z,32.05
2023-04-18T23:21:47.627Z,32.04
2023-04-18T23:22:46.196Z,32.05
2023-04-18T23:23:46.177Z,32.03